Jamestown, Illinois
Current Conditions -  °F | °C
As of 1:58 PM on Monday 24 Nov 2014 (Local Time) from KBLV Reporting Station
Overcast Overcast  
Wind Chill: 34°   Ceiling: 4300
Heat Index: 42°   Visibility: 10mi
Dew Point: 30°   Wind: 17mph
Humidity: 61%   Direction: 260°W
Pressure: 29.74"   Gusts: 26mph
Location:  38.7728°N, 89.5031°W
Report Text: KBLV 241958Z AUTO 26015G23KT 10SM BKN043 OVC050 06/M01 A2974 RMK AO2 PK WND 26027/18 SLP075 T00571012
Loading
Personal Weather Stations






























Interactive Weather Map New forecast layout! Learn more

10-Day Weather Forecast

Advertisements
Track Severe Weather on mobile